createdAt,value
2023-02-24T00:00:32.590Z,46.10
2023-02-24T00:02:01.729Z,47.20
2023-02-24T00:03:11.534Z,46.20
2023-02-24T00:04:14.834Z,50.20
2023-02-24T00:05:17.718Z,48.70
2023-02-24T00:06:20.616Z,49.00
2023-02-24T00:07:23.548Z,44.90
2023-02-24T00:08:26.488Z,41.80
2023-02-24T00:09:31.159Z,43.90
2023-02-24T00:10:34.385Z,43.50
2023-02-24T00:11:43.406Z,46.60
2023-02-24T00:12:47.263Z,47.00
2023-02-24T00:13:50.118Z,49.00
2023-02-24T00:14:52.997Z,45.40
2023-02-24T00:16:05.401Z,45.80
2023-02-24T00:17:10.266Z,46.00
2023-02-24T00:18:13.382Z,51.20
2023-02-24T00:19:21.130Z,45.00
2023-02-24T00:20:24.961Z,44.00
2023-02-24T00:21:28.587Z,46.70
2023-02-24T00:22:31.417Z,43.80
2023-02-24T00:23:38.590Z,43.10
2023-02-24T00:24:49.734Z,51.50
2023-02-24T00:25:59.960Z,47.60
2023-02-24T00:27:07.990Z,48.60
2023-02-24T00:28:14.395Z,43.80
2023-02-24T00:29:18.399Z,46.80
2023-02-24T00:30:24.187Z,45.20
2023-02-24T00:31:31.179Z,42.50
2023-02-24T00:32:36.296Z,43.80
2023-02-24T00:33:39.814Z,47.90
2023-02-24T00:34:43.468Z,44.00
2023-02-24T00:35:46.639Z,43.20
2023-02-24T00:36:49.569Z,46.70
2023-02-24T00:37:54.831Z,47.00
2023-02-24T00:39:00.954Z,45.50
2023-02-24T00:40:11.112Z,45.30
2023-02-24T00:41:17.263Z,44.30
2023-02-24T00:42:22.903Z,46.50
2023-02-24T00:43:25.807Z,48.90
2023-02-24T00:44:33.117Z,46.10
2023-02-24T00:45:37.827Z,47.30
2023-02-24T00:46:46.031Z,43.30
2023-02-24T00:47:48.915Z,46.10
2023-02-24T00:48:56.835Z,46.40
2023-02-24T00:49:59.689Z,46.00
2023-02-24T00:51:03.236Z,50.00
2023-02-24T00:52:06.715Z,46.40
2023-02-24T00:53:09.690Z,44.60
2023-02-24T00:54:16.309Z,46.90
2023-02-24T00:55:19.333Z,47.00
2023-02-24T00:56:28.708Z,46.60
2023-02-24T00:57:33.423Z,43.10
2023-02-24T00:58:36.497Z,46.70
2023-02-24T00:59:39.848Z,42.70
2023-02-24T01:00:44.135Z,41.50
2023-02-24T01:01:49.561Z,44.00
2023-02-24T01:02:52.956Z,44.60
2023-02-24T01:03:57.178Z,47.00
2023-02-24T01:05:01.322Z,43.30
2023-02-24T01:06:04.416Z,43.70
2023-02-24T01:07:11.249Z,49.20
2023-02-24T01:08:21.464Z,46.10
2023-02-24T01:09:27.261Z,46.60
2023-02-24T01:10:30.116Z,45.50
2023-02-24T01:11:54.264Z,46.40
2023-02-24T01:12:57.133Z,43.10
2023-02-24T01:14:00.593Z,49.30
2023-02-24T01:15:05.099Z,44.60
2023-02-24T01:16:08.837Z,44.80
2023-02-24T01:17:11.735Z,46.10
2023-02-24T01:18:14.633Z,40.60
2023-02-24T01:19:19.322Z,44.20
2023-02-24T01:20:22.206Z,46.40
2023-02-24T01:21:25.141Z,45.30
2023-02-24T01:22:28.031Z,45.50
2023-02-24T01:23:31.002Z,43.70
2023-02-24T01:24:38.093Z,42.90
2023-02-24T01:25:47.311Z,43.60
2023-02-24T01:26:50.464Z,43.90
2023-02-24T01:27:54.091Z,42.90
2023-02-24T01:28:57.605Z,49.50
2023-02-24T01:30:01.327Z,45.40
2023-02-24T01:31:06.332Z,46.80
2023-02-24T01:32:17.076Z,47.30
2023-02-24T01:33:21.787Z,47.50
2023-02-24T01:34:28.241Z,45.50
2023-02-24T01:35:35.322Z,50.10
2023-02-24T01:36:40.901Z,45.10
2023-02-24T01:37:45.480Z,46.50
2023-02-24T01:38:51.617Z,52.60
2023-02-24T01:39:54.470Z,42.60
2023-02-24T01:40:59.362Z,51.20
2023-02-24T01:42:04.802Z,47.10
2023-02-24T01:43:10.895Z,47.20
2023-02-24T01:44:14.548Z,45.50
2023-02-24T01:45:21.916Z,51.90
2023-02-24T01:46:33.220Z,48.50
2023-02-24T01:47:36.164Z,43.20
2023-02-24T01:48:39.126Z,47.90
2023-02-24T01:49:49.600Z,44.80
2023-02-24T01:50:53.091Z,45.40
2023-02-24T01:52:06.185Z,43.50
2023-02-24T01:53:09.082Z,45.60
2023-02-24T01:54:17.506Z,44.80
2023-02-24T01:55:25.673Z,43.30
2023-02-24T01:56:31.298Z,45.80
2023-02-24T01:57:38.802Z,43.70
2023-02-24T01:58:42.749Z,43.70
2023-02-24T01:59:48.671Z,46.70
2023-02-24T02:00:52.687Z,47.40
2023-02-24T02:02:04.214Z,42.10
2023-02-24T02:03:27.082Z,47.70
2023-02-24T02:04:54.882Z,43.20
2023-02-24T02:06:04.391Z,45.70
2023-02-24T02:07:11.065Z,45.60
2023-02-24T02:08:16.591Z,43.10
2023-02-24T02:09:20.659Z,46.00
2023-02-24T02:10:29.398Z,44.70
2023-02-24T02:11:32.693Z,45.00
2023-02-24T02:12:44.500Z,46.20
2023-02-24T02:13:50.545Z,43.80
2023-02-24T02:14:56.458Z,52.40
2023-02-24T02:16:13.827Z,48.50
2023-02-24T02:17:42.880Z,45.50
2023-02-24T02:18:56.374Z,48.40
2023-02-24T02:20:20.228Z,49.20
2023-02-24T02:21:49.762Z,51.70
2023-02-24T02:23:09.625Z,43.10
2023-02-24T02:24:26.314Z,44.00
2023-02-24T02:26:18.937Z,46.80
2023-02-24T02:27:45.406Z,45.00
2023-02-24T02:29:02.043Z,40.10
2023-02-24T02:30:17.624Z,43.20
2023-02-24T02:31:32.320Z,48.70
2023-02-24T02:32:38.432Z,48.60
2023-02-24T02:34:19.754Z,48.20
2023-02-24T02:35:31.733Z,46.20
2023-02-24T02:36:34.684Z,54.00
2023-02-24T02:37:56.451Z,45.90
2023-02-24T02:39:22.264Z,50.30
2023-02-24T02:40:44.860Z,54.00
2023-02-24T02:41:55.034Z,50.90
2023-02-24T02:43:12.124Z,54.10
2023-02-24T02:44:19.706Z,52.30
2023-02-24T02:46:05.299Z,54.10
2023-02-24T02:47:24.852Z,57.20
2023-02-24T02:48:47.890Z,50.20
2023-02-24T02:50:03.065Z,57.70
2023-02-24T02:51:17.003Z,59.10
2023-02-24T02:52:29.220Z,63.80
2023-02-24T02:53:46.580Z,59.70
2023-02-24T02:55:21.719Z,60.50
2023-02-24T02:56:35.318Z,63.60
2023-02-24T02:57:47.231Z,71.10
2023-02-24T02:58:54.338Z,65.80
2023-02-24T03:00:35.299Z,60.40
2023-02-24T03:01:43.900Z,66.80
2023-02-24T03:02:52.515Z,66.40
2023-02-24T03:04:01.313Z,71.40
2023-02-24T03:05:10.051Z,67.10
2023-02-24T03:06:22.314Z,68.50
2023-02-24T03:07:31.399Z,67.20
2023-02-24T03:08:38.236Z,72.60
2023-02-24T03:09:45.722Z,71.20
2023-02-24T03:10:52.004Z,73.20
2023-02-24T03:12:02.377Z,67.80
2023-02-24T03:13:10.136Z,70.70
2023-02-24T03:14:16.951Z,70.40
2023-02-24T03:15:22.787Z,77.90
2023-02-24T03:16:27.338Z,69.60
2023-02-24T03:17:36.038Z,69.60
2023-02-24T03:19:04.314Z,69.70
2023-02-24T03:20:17.532Z,70.30
2023-02-24T03:21:29.050Z,78.10
2023-02-24T03:22:42.535Z,74.00
2023-02-24T03:23:50.643Z,74.70
2023-02-24T03:24:54.093Z,77.80
2023-02-24T03:26:19.114Z,72.70
2023-02-24T03:27:34.340Z,79.20
2023-02-24T03:28:41.838Z,71.80
2023-02-24T03:29:50.819Z,73.30
2023-02-24T03:31:03.901Z,75.30
2023-02-24T03:32:17.357Z,75.70
2023-02-24T03:33:29.867Z,76.70
2023-02-24T03:34:55.383Z,75.80
2023-02-24T03:36:01.972Z,83.90
2023-02-24T03:37:06.062Z,76.00
2023-02-24T03:38:11.182Z,79.10
2023-02-24T03:39:15.879Z,77.90
2023-02-24T03:40:28.988Z,81.80
2023-02-24T03:41:41.118Z,82.10
2023-02-24T03:42:48.272Z,73.40
2023-02-24T03:43:52.315Z,82.20
2023-02-24T03:44:58.434Z,91.30
2023-02-24T03:46:01.780Z,83.60
2023-02-24T03:47:05.697Z,88.70
2023-02-24T03:48:11.948Z,85.30
2023-02-24T03:49:16.874Z,87.50
2023-02-24T03:50:22.213Z,83.50
2023-02-24T03:51:31.723Z,80.20
2023-02-24T03:52:52.768Z,79.40
2023-02-24T03:53:58.563Z,80.90
2023-02-24T03:55:10.952Z,84.90
2023-02-24T03:56:14.089Z,85.20
2023-02-24T03:57:54.834Z,83.50
2023-02-24T03:59:23.984Z,81.10
2023-02-24T04:00:34.432Z,84.30
2023-02-24T04:01:55.912Z,87.70
2023-02-24T04:03:03.612Z,87.90
2023-02-24T04:04:19.253Z,85.50
2023-02-24T04:05:33.568Z,84.10
2023-02-24T04:08:07.704Z,84.00
2023-02-24T04:09:33.350Z,86.40
2023-02-24T04:10:58.703Z,89.40
2023-02-24T04:12:21.556Z,82.50
2023-02-24T04:13:43.362Z,85.70
2023-02-24T04:14:58.625Z,87.30
2023-02-24T04:16:12.167Z,86.50
2023-02-24T04:17:26.757Z,88.90
2023-02-24T04:18:32.769Z,91.90
2023-02-24T04:19:40.633Z,89.70
2023-02-24T04:20:45.520Z,83.30
2023-02-24T04:21:50.171Z,95.80
2023-02-24T04:23:09.493Z,89.90
2023-02-24T04:24:15.870Z,90.80
2023-02-24T04:25:25.006Z,90.70
2023-02-24T04:26:29.879Z,87.90
2023-02-24T04:27:33.311Z,93.70
2023-02-24T04:28:50.151Z,93.30
2023-02-24T04:29:57.539Z,93.20
2023-02-24T04:31:06.328Z,95.90
2023-02-24T04:32:13.298Z,92.90
2023-02-24T04:33:17.299Z,94.90
2023-02-24T04:34:20.711Z,96.40
2023-02-24T04:35:26.849Z,93.50
2023-02-24T04:36:34.179Z,92.90
2023-02-24T04:37:38.645Z,99.80
2023-02-24T04:38:41.573Z,97.90
2023-02-24T04:39:46.204Z,100.80
2023-02-24T04:40:57.501Z,91.40
2023-02-24T04:42:01.842Z,100.60
2023-02-24T04:43:04.744Z,96.00
2023-02-24T04:44:07.580Z,95.30
2023-02-24T04:45:13.080Z,95.90
2023-02-24T04:46:16.642Z,94.70
2023-02-24T04:47:20.100Z,97.40
2023-02-24T04:48:23.076Z,108.30
2023-02-24T04:49:26.754Z,101.00
2023-02-24T04:50:35.971Z,100.70
2023-02-24T04:51:42.417Z,101.20
2023-02-24T04:52:47.610Z,102.40
2023-02-24T04:53:50.476Z,103.70
2023-02-24T04:54:53.323Z,98.50
2023-02-24T04:55:56.491Z,99.00
2023-02-24T04:56:59.589Z,103.90
2023-02-24T04:58:02.897Z,107.00
2023-02-24T04:59:05.853Z,106.60
2023-02-24T05:00:32.649Z,111.20
2023-02-24T05:01:35.535Z,99.10
2023-02-24T05:02:38.477Z,107.50
2023-02-24T05:03:44.923Z,105.20
2023-02-24T05:04:49.781Z,110.60
2023-02-24T05:06:00.345Z,114.70
2023-02-24T05:07:03.486Z,104.70
2023-02-24T05:08:08.983Z,104.70
2023-02-24T05:09:14.682Z,105.20
2023-02-24T05:10:19.023Z,115.10
2023-02-24T05:11:22.186Z,105.60
2023-02-24T05:12:25.176Z,112.50
2023-02-24T05:13:31.867Z,106.60
2023-02-24T05:14:35.570Z,109.90
2023-02-24T05:15:41.841Z,106.60
2023-02-24T05:16:46.837Z,110.60
2023-02-24T05:17:52.594Z,111.30
2023-02-24T05:19:15.513Z,111.10
2023-02-24T05:20:37.076Z,111.70
2023-02-24T05:21:41.784Z,113.70
2023-02-24T05:22:45.021Z,113.20
2023-02-24T05:23:47.862Z,108.90
2023-02-24T05:24:50.761Z,112.50
2023-02-24T05:25:55.163Z,115.10
2023-02-24T05:26:59.334Z,110.10
2023-02-24T05:28:04.204Z,118.90
2023-02-24T05:29:07.732Z,109.80
2023-02-24T05:30:11.546Z,114.80
2023-02-24T05:31:20.615Z,115.80
2023-02-24T05:32:25.578Z,111.00
2023-02-24T05:33:29.373Z,121.80
2023-02-24T05:34:33.502Z,114.50
2023-02-24T05:35:36.948Z,115.00
2023-02-24T05:36:40.954Z,125.30
2023-02-24T05:37:45.011Z,119.90
2023-02-24T05:38:50.056Z,116.60
2023-02-24T05:39:56.948Z,120.70
2023-02-24T05:41:11.546Z,120.60
2023-02-24T05:42:14.418Z,123.60
2023-02-24T05:43:18.331Z,129.20
2023-02-24T05:44:23.865Z,123.10
2023-02-24T05:45:30.476Z,118.40
2023-02-24T05:46:35.037Z,120.20
2023-02-24T05:47:40.201Z,121.30
2023-02-24T05:48:44.164Z,122.70
2023-02-24T05:49:48.164Z,126.50
2023-02-24T05:50:55.156Z,117.10
2023-02-24T05:52:01.073Z,113.50
2023-02-24T05:53:03.894Z,117.50
2023-02-24T05:54:10.118Z,122.50
2023-02-24T05:55:14.325Z,117.90
2023-02-24T05:56:19.264Z,122.70
2023-02-24T05:57:24.972Z,124.70
2023-02-24T05:58:29.273Z,121.90
2023-02-24T05:59:33.532Z,120.90
2023-02-24T06:00:39.337Z,121.70
2023-02-24T06:01:42.492Z,131.20
2023-02-24T06:02:49.870Z,126.50
2023-02-24T06:03:54.508Z,123.90
2023-02-24T06:04:58.956Z,118.40
2023-02-24T06:06:09.189Z,121.80
2023-02-24T06:07:22.946Z,130.50
2023-02-24T06:08:26.337Z,122.70
2023-02-24T06:09:29.213Z,116.20
2023-02-24T06:10:34.499Z,117.10
2023-02-24T06:11:40.690Z,122.30
2023-02-24T06:12:44.240Z,123.20
2023-02-24T06:13:48.067Z,120.00
2023-02-24T06:14:53.206Z,115.50
2023-02-24T06:15:57.289Z,120.40
2023-02-24T06:17:02.782Z,123.30
2023-02-24T06:18:07.199Z,134.90
2023-02-24T06:19:12.668Z,122.00
2023-02-24T06:20:16.075Z,121.90
2023-02-24T06:21:19.570Z,120.70
2023-02-24T06:22:25.248Z,119.50
2023-02-24T06:23:28.497Z,115.30
2023-02-24T06:24:33.440Z,121.60
2023-02-24T06:25:38.611Z,114.40
2023-02-24T06:26:43.423Z,120.60
2023-02-24T06:27:46.361Z,122.40
2023-02-24T06:28:54.139Z,110.00
2023-02-24T06:29:57.772Z,120.60
2023-02-24T06:31:06.996Z,114.90
2023-02-24T06:32:10.328Z,112.70
2023-02-24T06:33:13.905Z,115.30
2023-02-24T06:34:18.585Z,113.20
2023-02-24T06:35:21.540Z,110.90
2023-02-24T06:36:24.400Z,105.80
2023-02-24T06:37:28.288Z,106.60
2023-02-24T06:38:32.870Z,108.00
2023-02-24T06:39:36.890Z,110.20
2023-02-24T06:40:40.475Z,108.50
2023-02-24T06:41:43.305Z,106.00
2023-02-24T06:42:54.071Z,106.60
2023-02-24T06:43:56.992Z,105.30
2023-02-24T06:44:59.933Z,106.70
2023-02-24T06:46:02.850Z,104.90
2023-02-24T06:47:08.017Z,102.00
2023-02-24T06:48:12.094Z,111.20
2023-02-24T06:49:15.003Z,105.50
2023-02-24T06:50:23.446Z,110.00
2023-02-24T06:51:30.323Z,98.80
2023-02-24T06:52:34.216Z,105.10
2023-02-24T06:53:43.353Z,107.90
2023-02-24T06:54:52.459Z,102.00
2023-02-24T06:55:55.944Z,102.20
2023-02-24T06:56:59.446Z,99.00
2023-02-24T06:58:05.516Z,93.00
2023-02-24T06:59:13.059Z,102.40
2023-02-24T07:00:25.187Z,100.20
2023-02-24T07:01:29.218Z,94.10
2023-02-24T07:02:39.670Z,98.20
2023-02-24T07:04:02.428Z,97.80
2023-02-24T07:05:06.452Z,94.20
2023-02-24T07:06:24.021Z,102.90
2023-02-24T07:07:29.231Z,88.00
2023-02-24T07:08:32.167Z,96.70
2023-02-24T07:09:35.709Z,98.50
2023-02-24T07:10:39.145Z,96.50
2023-02-24T07:11:51.996Z,96.90
2023-02-24T07:12:54.837Z,106.10
2023-02-24T07:13:58.751Z,98.70
2023-02-24T07:15:01.601Z,95.20
2023-02-24T07:16:07.444Z,101.10
2023-02-24T07:17:10.440Z,93.70
2023-02-24T07:18:15.078Z,106.60
2023-02-24T07:19:18.106Z,94.40
2023-02-24T07:20:25.595Z,99.10
2023-02-24T07:21:46.372Z,96.70
2023-02-24T07:22:49.185Z,101.50
2023-02-24T07:23:58.883Z,97.80
2023-02-24T07:25:02.616Z,103.70
2023-02-24T07:26:14.105Z,94.90
2023-02-24T07:27:23.593Z,97.10
2023-02-24T07:28:27.824Z,93.60
2023-02-24T07:29:33.104Z,102.90
2023-02-24T07:30:38.612Z,97.20
2023-02-24T07:31:43.048Z,98.10
2023-02-24T07:32:48.658Z,101.40
2023-02-24T07:34:02.210Z,101.80
2023-02-24T07:35:05.436Z,99.40
2023-02-24T07:36:08.835Z,100.50
2023-02-24T07:37:12.425Z,102.00
2023-02-24T07:38:17.472Z,96.90
2023-02-24T07:39:23.227Z,92.10
2023-02-24T07:40:26.151Z,102.70
2023-02-24T07:41:31.066Z,101.10
2023-02-24T07:42:35.482Z,101.50
2023-02-24T07:43:42.172Z,101.70
2023-02-24T07:44:46.823Z,107.20
2023-02-24T07:45:50.117Z,93.50
2023-02-24T07:46:53.437Z,100.90
2023-02-24T07:47:57.263Z,96.70
2023-02-24T07:49:00.086Z,98.60
2023-02-24T07:50:03.332Z,96.80
2023-02-24T07:51:08.269Z,98.00
2023-02-24T07:52:11.786Z,96.30
2023-02-24T07:53:16.563Z,92.50
2023-02-24T07:54:21.700Z,89.40
2023-02-24T07:55:25.977Z,96.80
2023-02-24T07:56:31.198Z,89.60
2023-02-24T07:57:34.006Z,84.40
2023-02-24T07:58:36.849Z,85.90
2023-02-24T07:59:39.745Z,92.60
2023-02-24T08:01:06.033Z,86.00
2023-02-24T08:02:11.507Z,84.80
2023-02-24T08:03:14.616Z,82.30
2023-02-24T08:04:20.582Z,84.30
2023-02-24T08:05:24.694Z,82.50
2023-02-24T08:06:39.225Z,77.20
2023-02-24T08:07:42.727Z,85.10
2023-02-24T08:09:16.772Z,79.00
2023-02-24T08:10:26.703Z,79.40
2023-02-24T08:11:35.760Z,81.80
2023-02-24T08:12:42.888Z,77.70
2023-02-24T08:13:45.861Z,85.00
2023-02-24T08:14:51.626Z,80.30
2023-02-24T08:15:58.123Z,77.30
2023-02-24T08:17:05.533Z,75.80
2023-02-24T08:18:09.304Z,81.20
2023-02-24T08:19:20.352Z,75.60
2023-02-24T08:20:25.242Z,74.70
2023-02-24T08:21:28.157Z,74.10
2023-02-24T08:22:37.460Z,69.80
2023-02-24T08:23:44.811Z,75.20
2023-02-24T08:25:00.876Z,72.60
2023-02-24T08:26:03.895Z,72.10
2023-02-24T08:27:06.845Z,71.50
2023-02-24T08:28:11.816Z,67.20
2023-02-24T08:29:14.937Z,71.10
2023-02-24T08:30:23.982Z,70.00
2023-02-24T08:31:27.111Z,69.40
2023-02-24T08:32:43.567Z,96.90
2023-02-24T08:33:46.641Z,67.80
2023-02-24T08:34:50.721Z,69.80
2023-02-24T08:36:01.610Z,70.90
2023-02-24T08:37:06.137Z,67.30
2023-02-24T08:38:16.115Z,70.20
2023-02-24T08:39:19.384Z,67.70
2023-02-24T08:40:31.977Z,66.80
2023-02-24T08:41:51.398Z,62.70
2023-02-24T08:42:54.289Z,62.90
2023-02-24T08:43:57.157Z,62.20
2023-02-24T08:45:01.930Z,61.60
2023-02-24T08:46:13.992Z,63.90
2023-02-24T08:47:21.257Z,62.30
2023-02-24T08:48:26.643Z,63.60
2023-02-24T08:49:29.540Z,58.50
2023-02-24T08:50:33.963Z,62.90
2023-02-24T08:51:43.938Z,59.70
2023-02-24T08:52:46.982Z,65.00
2023-02-24T08:53:56.176Z,58.10
2023-02-24T08:55:01.791Z,59.70
2023-02-24T08:56:09.707Z,60.70
2023-02-24T08:57:15.370Z,60.00
2023-02-24T08:58:27.215Z,56.30
2023-02-24T08:59:40.405Z,52.20
2023-02-24T09:00:49.239Z,60.60
2023-02-24T09:02:04.256Z,55.00
2023-02-24T09:03:08.620Z,55.40
2023-02-24T09:04:19.232Z,53.70
2023-02-24T09:05:24.429Z,52.50
2023-02-24T09:06:53.847Z,55.50
2023-02-24T09:07:59.219Z,55.30
2023-02-24T09:09:20.469Z,57.00
2023-02-24T09:10:23.298Z,52.80
2023-02-24T09:11:26.184Z,51.70
2023-02-24T09:12:30.780Z,56.10
2023-02-24T09:13:43.197Z,58.30
2023-02-24T09:14:46.078Z,53.50
2023-02-24T09:15:50.278Z,51.90
2023-02-24T09:17:03.626Z,65.90
2023-02-24T09:18:14.438Z,58.70
2023-02-24T09:19:41.368Z,50.30
2023-02-24T09:20:56.500Z,51.20
2023-02-24T09:22:21.458Z,53.50
2023-02-24T09:23:30.363Z,56.30
2023-02-24T09:24:33.255Z,53.20
2023-02-24T09:25:41.794Z,53.20
2023-02-24T09:26:44.711Z,56.10
2023-02-24T09:27:55.150Z,56.80
2023-02-24T09:28:58.220Z,58.50
2023-02-24T09:30:08.254Z,58.20
2023-02-24T09:31:11.328Z,58.10
2023-02-24T09:32:15.041Z,60.20
2023-02-24T09:33:23.798Z,57.10
2023-02-24T09:34:30.215Z,57.70
2023-02-24T09:35:37.041Z,57.00
2023-02-24T09:36:45.203Z,60.30
2023-02-24T09:37:48.075Z,55.10
2023-02-24T09:38:59.905Z,54.20
2023-02-24T09:40:25.656Z,60.30
2023-02-24T09:41:53.857Z,57.40
2023-02-24T09:42:58.439Z,53.80
2023-02-24T09:44:18.451Z,52.70
2023-02-24T09:45:33.469Z,54.20
2023-02-24T09:46:53.944Z,51.90
2023-02-24T09:47:57.560Z,57.90
2023-02-24T09:49:13.022Z,53.30
2023-02-24T09:50:40.311Z,51.00
2023-02-24T09:51:44.441Z,55.10
2023-02-24T09:52:52.147Z,54.60
2023-02-24T09:53:57.133Z,61.90
2023-02-24T09:55:19.015Z,54.00
2023-02-24T09:56:27.740Z,54.50
2023-02-24T09:57:37.539Z,53.90
2023-02-24T09:58:48.158Z,55.90
2023-02-24T10:00:23.165Z,51.50
2023-02-24T10:01:52.858Z,53.70
2023-02-24T10:03:20.962Z,52.40
2023-02-24T10:04:49.458Z,49.60
2023-02-24T10:06:12.503Z,48.20
2023-02-24T10:07:27.568Z,48.00
2023-02-24T10:08:38.372Z,49.00
2023-02-24T10:09:50.451Z,49.10
2023-02-24T10:11:09.541Z,54.70
2023-02-24T10:12:29.459Z,45.70
2023-02-24T10:13:33.332Z,52.10
2023-02-24T10:15:16.963Z,54.80
2023-02-24T10:16:24.364Z,51.10
2023-02-24T10:17:40.387Z,49.00
2023-02-24T10:19:15.203Z,47.70
2023-02-24T10:20:44.322Z,50.40
2023-02-24T10:22:03.364Z,47.50
2023-02-24T10:23:18.122Z,44.90
2023-02-24T10:24:47.946Z,48.50
2023-02-24T10:26:06.809Z,43.40
2023-02-24T10:27:18.125Z,42.50
2023-02-24T10:28:46.159Z,38.40
2023-02-24T10:30:05.751Z,37.50
2023-02-24T10:32:48.185Z,37.00
2023-02-24T10:34:06.177Z,38.80
2023-02-24T10:35:18.194Z,35.30
2023-02-24T10:36:35.459Z,36.50
2023-02-24T10:37:38.911Z,35.70
2023-02-24T10:38:45.474Z,33.20
2023-02-24T10:39:51.872Z,39.30
2023-02-24T10:40:59.731Z,36.30
2023-02-24T10:42:17.626Z,37.50
2023-02-24T10:43:30.324Z,35.90
2023-02-24T10:44:36.670Z,34.70
2023-02-24T10:45:45.477Z,27.80
2023-02-24T10:47:11.475Z,31.70
2023-02-24T10:48:40.576Z,31.30
2023-02-24T10:49:59.056Z,30.80
2023-02-24T10:51:11.444Z,29.10
2023-02-24T10:52:36.622Z,35.50
2023-02-24T10:53:46.124Z,29.70
2023-02-24T10:55:08.528Z,28.10
2023-02-24T10:56:26.590Z,26.10
2023-02-24T10:57:47.475Z,31.30
2023-02-24T10:59:23.119Z,27.10
2023-02-24T11:00:48.827Z,22.40
2023-02-24T11:01:59.187Z,29.90
2023-02-24T11:03:09.962Z,29.80
2023-02-24T11:04:33.129Z,29.20
2023-02-24T11:06:01.059Z,31.50
2023-02-24T11:07:12.127Z,30.90
2023-02-24T11:08:37.087Z,28.40
2023-02-24T11:09:52.331Z,28.80
2023-02-24T11:11:07.501Z,26.50
2023-02-24T11:12:28.860Z,34.10
2023-02-24T11:13:50.468Z,26.80
2023-02-24T11:15:20.182Z,22.90
2023-02-24T11:16:42.219Z,27.20
2023-02-24T11:17:58.327Z,23.90
2023-02-24T11:19:01.314Z,22.00
2023-02-24T11:20:22.835Z,25.20
2023-02-24T11:21:27.865Z,22.80
2023-02-24T11:22:36.433Z,23.30
2023-02-24T11:23:56.410Z,23.40
2023-02-24T11:25:07.188Z,22.80
2023-02-24T11:26:23.546Z,23.70
2023-02-24T11:27:27.869Z,22.90
2023-02-24T11:28:39.482Z,23.10
2023-02-24T11:30:01.584Z,22.60
2023-02-24T11:31:23.830Z,18.60
2023-02-24T11:32:33.134Z,23.90
2023-02-24T11:34:00.974Z,22.00
2023-02-24T11:35:31.426Z,26.90
2023-02-24T11:36:50.050Z,25.00
2023-02-24T11:38:07.926Z,21.80
2023-02-24T11:39:42.287Z,26.80
2023-02-24T11:40:53.479Z,26.70
2023-02-24T11:42:02.186Z,27.00
2023-02-24T11:43:19.296Z,28.40
2023-02-24T11:44:28.398Z,26.80
2023-02-24T11:45:43.376Z,26.00
2023-02-24T11:46:52.176Z,27.20
2023-02-24T11:48:04.975Z,31.80
2023-02-24T11:49:23.137Z,25.20
2023-02-24T11:50:37.131Z,24.40
2023-02-24T11:51:40.339Z,21.70
2023-02-24T11:52:47.804Z,25.30
2023-02-24T11:54:11.721Z,23.70
2023-02-24T11:55:27.421Z,24.00
2023-02-24T11:56:39.135Z,24.00
2023-02-24T11:57:48.431Z,25.90
2023-02-24T11:59:28.847Z,24.90
2023-02-24T12:00:37.377Z,24.40
2023-02-24T12:01:52.383Z,24.20
2023-02-24T12:03:18.360Z,22.20
2023-02-24T12:04:28.281Z,21.50
2023-02-24T12:05:37.132Z,22.00
2023-02-24T12:07:02.151Z,25.20
2023-02-24T12:08:29.111Z,21.20
2023-02-24T12:09:43.604Z,21.90
2023-02-24T12:10:54.008Z,18.50
2023-02-24T12:12:16.897Z,23.30
2023-02-24T12:13:28.261Z,20.80
2023-02-24T12:14:34.708Z,19.80
2023-02-24T12:16:03.211Z,19.30
2023-02-24T12:17:44.468Z,23.60
2023-02-24T12:18:59.154Z,21.30
2023-02-24T12:20:13.590Z,19.30
2023-02-24T12:21:36.177Z,19.50
2023-02-24T12:22:52.713Z,23.90
2023-02-24T12:23:55.576Z,20.60
2023-02-24T12:24:58.748Z,20.60
2023-02-24T12:26:16.571Z,22.90
2023-02-24T12:27:36.662Z,22.50
2023-02-24T12:29:09.934Z,23.70
2023-02-24T12:30:38.323Z,19.40
2023-02-24T12:32:16.087Z,17.90
2023-02-24T12:33:31.128Z,21.30
2023-02-24T12:34:43.554Z,19.60
2023-02-24T12:36:03.045Z,21.00
2023-02-24T12:37:24.018Z,24.00
2023-02-24T12:38:55.734Z,18.30
2023-02-24T12:40:01.385Z,18.70
2023-02-24T12:41:13.223Z,19.30
2023-02-24T12:43:11.958Z,18.30
2023-02-24T12:44:36.992Z,21.90
2023-02-24T12:45:55.084Z,20.30
2023-02-24T12:47:07.123Z,17.30
2023-02-24T12:48:37.417Z,19.20
2023-02-24T12:50:16.743Z,17.30
2023-02-24T12:52:10.277Z,20.80
2023-02-24T12:53:31.556Z,16.90
2023-02-24T12:55:03.861Z,20.50
2023-02-24T12:56:24.372Z,18.10
2023-02-24T12:57:56.263Z,18.00
2023-02-24T12:59:05.576Z,18.20
2023-02-24T13:00:20.742Z,17.90
2023-02-24T13:01:47.811Z,20.20
2023-02-24T13:03:00.495Z,18.50
2023-02-24T13:04:48.050Z,21.50
2023-02-24T13:06:10.612Z,19.00
2023-02-24T13:07:35.838Z,19.00
2023-02-24T13:08:42.390Z,20.40
2023-02-24T13:10:12.379Z,19.70
2023-02-24T13:11:37.250Z,16.60
2023-02-24T13:12:46.586Z,18.50
2023-02-24T13:13:59.650Z,19.70
2023-02-24T13:15:15.594Z,17.40
2023-02-24T13:16:32.286Z,17.00
2023-02-24T13:17:51.074Z,17.50
2023-02-24T13:19:05.251Z,17.80
2023-02-24T13:20:31.860Z,16.90
2023-02-24T13:21:34.955Z,19.90
2023-02-24T13:22:42.326Z,20.10
2023-02-24T13:23:59.206Z,20.30
2023-02-24T13:25:08.258Z,18.60
2023-02-24T13:26:11.150Z,23.80
2023-02-24T13:27:21.413Z,20.40
2023-02-24T13:28:33.350Z,19.60
2023-02-24T13:29:47.735Z,22.60
2023-02-24T13:31:07.256Z,23.20
2023-02-24T13:32:28.501Z,21.90
2023-02-24T13:33:43.678Z,22.20
2023-02-24T13:34:46.616Z,22.10
2023-02-24T13:35:53.449Z,22.50
2023-02-24T13:36:57.448Z,24.90
2023-02-24T13:38:24.173Z,24.80
2023-02-24T13:39:41.564Z,24.80
2023-02-24T13:40:44.433Z,21.60
2023-02-24T13:41:47.666Z,24.30
2023-02-24T13:42:56.410Z,24.30
2023-02-24T13:44:03.653Z,25.40
2023-02-24T13:45:15.122Z,23.00
2023-02-24T13:46:19.762Z,20.50
2023-02-24T13:47:37.266Z,23.70
2023-02-24T13:49:10.728Z,21.90
2023-02-24T13:50:31.397Z,21.80
2023-02-24T13:52:00.537Z,20.60
2023-02-24T13:53:09.556Z,20.50
2023-02-24T13:54:51.126Z,21.60
2023-02-24T13:56:15.509Z,22.70
2023-02-24T13:57:49.214Z,20.40
2023-02-24T13:59:13.922Z,22.60
2023-02-24T14:00:41.326Z,23.30
2023-02-24T14:01:58.754Z,20.40
2023-02-24T14:03:11.137Z,23.30
2023-02-24T14:04:16.160Z,24.10
2023-02-24T14:05:25.487Z,22.40
2023-02-24T14:06:28.549Z,25.40
2023-02-24T14:07:37.554Z,23.10
2023-02-24T14:08:47.894Z,24.30
2023-02-24T14:09:58.358Z,22.50
2023-02-24T14:11:04.032Z,23.60
2023-02-24T14:12:20.607Z,22.20
2023-02-24T14:13:28.090Z,23.00
2023-02-24T14:14:31.701Z,24.70
2023-02-24T14:15:34.893Z,29.50
2023-02-24T14:16:40.068Z,22.10
2023-02-24T14:17:43.023Z,22.60
2023-02-24T14:18:56.477Z,23.40
2023-02-24T14:20:11.548Z,25.00
2023-02-24T14:21:22.066Z,24.70
2023-02-24T14:22:24.937Z,22.50
2023-02-24T14:23:31.476Z,24.30
2023-02-24T14:24:34.311Z,20.70
2023-02-24T14:25:39.396Z,22.90
2023-02-24T14:26:52.080Z,21.00
2023-02-24T14:27:56.785Z,22.80
2023-02-24T14:29:01.449Z,24.70
2023-02-24T14:30:06.172Z,22.00
2023-02-24T14:31:16.823Z,24.80
2023-02-24T14:32:22.899Z,21.50
2023-02-24T14:33:32.599Z,21.90
2023-02-24T14:34:35.538Z,21.90
2023-02-24T14:35:47.117Z,19.10
2023-02-24T14:36:53.308Z,26.50
2023-02-24T14:37:57.665Z,24.10
2023-02-24T14:39:20.087Z,23.30
2023-02-24T14:40:25.524Z,23.40
2023-02-24T14:41:28.383Z,22.90
2023-02-24T14:42:32.058Z,23.50
2023-02-24T14:43:41.938Z,21.50
2023-02-24T14:44:50.949Z,21.30
2023-02-24T14:45:54.319Z,21.90
2023-02-24T14:47:00.121Z,21.40
2023-02-24T14:48:03.105Z,20.10
2023-02-24T14:49:06.014Z,21.80
2023-02-24T14:50:17.082Z,22.70
2023-02-24T14:51:26.226Z,25.30
2023-02-24T14:52:44.711Z,23.00
2023-02-24T14:54:01.846Z,20.20
2023-02-24T14:55:04.805Z,20.30
2023-02-24T14:56:09.551Z,20.80
2023-02-24T14:57:22.263Z,20.90
2023-02-24T14:58:31.597Z,21.20
2023-02-24T14:59:39.353Z,19.90
2023-02-24T15:00:50.172Z,24.90
2023-02-24T15:01:56.532Z,22.40
2023-02-24T15:03:06.513Z,22.00
2023-02-24T15:04:44.557Z,23.70
2023-02-24T15:05:51.278Z,24.80
2023-02-24T15:06:54.564Z,26.30
2023-02-24T15:07:59.053Z,21.30